Time;durP1;ratioP1;P1;durP2;ratioP2;P2;SDS_P1;SDS_P2;PMS_P1;PMS_P2;Temp;Humidity;BMP_temperature;BMP_pressure;BME280_temperature;BME280_humidity;BME280_pressure;Samples;Min_cycle;Max_cycle;Signal;HPM_P1;HPM_P2
2022/05/02 00:01:14;;;;;;;0.82;0.82;;;;;;;13.19;48.58;101456.28;5133265;28;20027;-84
2022/05/02 00:03:44;;;;;;;3.45;1.27;;;;;;;13.16;49.01;101453.75;5094410;28;20054;-84
2022/05/02 00:06:15;;;;;;;0.95;0.95;;;;;;;13.17;48.82;101458.13;5112994;28;20664;-82
2022/05/02 00:08:46;;;;;;;1.02;1.00;;;;;;;13.14;49.08;101450.28;5096069;28;20102;-82
2022/05/02 00:11:16;;;;;;;1.80;1.70;;;;;;;13.04;48.70;101449.66;5098423;28;20176;-82
2022/05/02 00:13:47;;;;;;;0.80;0.80;;;;;;;12.99;49.39;101454.16;5114432;28;20066;-82
2022/05/02 00:16:17;;;;;;;2.08;1.98;;;;;;;12.99;48.90;101448.06;5099298;28;20069;-83
2022/05/02 00:18:48;;;;;;;0.68;0.68;;;;;;;12.95;48.99;101449.91;5114217;28;20043;-82
2022/05/02 00:21:18;;;;;;;1.08;1.05;;;;;;;12.92;48.99;101447.34;5145724;28;20023;-82
2022/05/02 00:23:49;;;;;;;4.72;1.42;;;;;;;12.90;49.01;101446.50;5115982;28;20077;-82
2022/05/02 00:26:19;;;;;;;0.77;0.77;;;;;;;12.91;49.71;101443.84;5115714;28;20298;-84
2022/05/02 00:28:50;;;;;;;1.08;1.08;;;;;;;12.85;49.23;101441.34;5107877;28;20967;-83
2022/05/02 00:31:21;;;;;;;1.00;1.00;;;;;;;12.81;49.24;101439.72;5107721;28;20336;-82
2022/05/02 00:33:51;;;;;;;0.90;0.90;;;;;;;12.80;49.07;101443.25;5092633;28;20449;-80
2022/05/02 00:36:23;;;;;;;1.20;1.15;;;;;;;12.80;49.51;101435.34;5109934;28;20042;-83
2022/05/02 00:38:54;;;;;;;1.52;1.42;;;;;;;12.74;48.99;101436.34;5109802;28;20043;-82
2022/05/02 00:41:25;;;;;;;1.05;1.00;;;;;;;12.70;48.98;101431.19;5113839;28;20240;-82
2022/05/02 00:43:56;;;;;;;1.60;1.50;;;;;;;12.67;49.45;101418.97;5099779;28;20137;-83
2022/05/02 00:46:26;;;;;;;0.82;0.82;;;;;;;12.66;49.14;101419.88;5120887;28;20015;-84
2022/05/02 00:48:57;;;;;;;1.23;1.10;;;;;;;12.66;49.62;101419.03;5132180;28;20027;-84
2022/05/02 00:51:27;;;;;;;0.63;0.63;;;;;;;12.57;49.38;101418.34;5149418;28;20035;-81
2022/05/02 00:53:57;;;;;;;0.65;0.65;;;;;;;12.56;49.67;101413.97;5121128;28;20052;-82
2022/05/02 00:56:28;;;;;;;1.00;1.00;;;;;;;12.58;49.85;101412.19;5098168;28;20031;-82
2022/05/02 00:59:03;;;;;;;0.45;0.45;;;;;;;12.50;49.70;101411.50;5112716;28;20035;-83
2022/05/02 01:01:34;;;;;;;1.02;1.02;;;;;;;12.46;49.70;101404.56;5100093;28;20104;-83
2022/05/02 01:04:07;;;;;;;0.65;0.65;;;;;;;12.45;50.08;101413.38;5112509;28;20070;-81
2022/05/02 01:09:28;;;;;;;1.63;1.52;;;;;;;12.40;50.05;101416.09;5108231;28;20039;-83
2022/05/02 01:11:58;;;;;;;1.30;1.20;;;;;;;12.37;50.22;101415.31;5099082;28;20097;-83
2022/05/02 01:14:35;;;;;;;2.05;1.05;;;;;;;12.33;51.07;101424.19;5129563;28;20043;-84
2022/05/02 01:17:06;;;;;;;1.23;1.10;;;;;;;12.32;50.58;101415.41;5129579;28;20030;-82
2022/05/02 01:19:37;;;;;;;1.58;1.13;;;;;;;12.34;50.64;101412.78;5081546;28;20042;-84
2022/05/02 01:22:08;;;;;;;1.33;1.23;;;;;;;12.31;50.12;101410.19;5098900;28;20488;-84
2022/05/02 01:24:46;;;;;;;1.08;1.08;;;;;;;12.31;50.57;101413.72;5111863;28;20045;-81
2022/05/02 01:27:17;;;;;;;2.33;2.13;;;;;;;12.31;50.29;101411.09;5096611;28;20094;-84
2022/05/02 01:29:47;;;;;;;1.33;1.23;;;;;;;12.31;50.84;101412.84;5095717;28;20039;-84
2022/05/02 01:32:18;;;;;;;1.30;1.30;;;;;;;12.21;50.64;101412.19;5129225;28;20034;-82
2022/05/02 01:34:48;;;;;;;1.83;1.52;;;;;;;12.22;50.90;101409.50;5137305;28;20058;-81
2022/05/02 01:37:19;;;;;;;0.60;0.60;;;;;;;12.10;50.76;101401.91;5100304;28;20058;-80
2022/05/02 01:39:49;;;;;;;1.98;1.52;;;;;;;12.06;50.38;101398.50;5094140;28;20041;-80
2022/05/02 01:42:20;;;;;;;2.00;1.80;;;;;;;12.05;50.92;101403.75;5116712;28;20031;-82
2022/05/02 01:44:50;;;;;;;2.35;1.60;;;;;;;12.06;50.66;101397.59;5111368;28;20066;-80
2022/05/02 01:47:23;;;;;;;3.53;1.75;;;;;;;12.05;50.71;101395.88;5129354;28;20034;-80
2022/05/02 01:49:53;;;;;;;1.52;1.42;;;;;;;12.03;50.80;101393.28;5096630;28;20058;-82
2022/05/02 01:52:24;;;;;;;0.98;0.98;;;;;;;12.02;50.84;101390.69;5111560;28;20043;-81
2022/05/02 01:54:54;;;;;;;0.40;0.40;;;;;;;11.98;51.11;101382.03;5110154;28;20105;-80
2022/05/02 01:57:25;;;;;;;1.92;1.83;;;;;;;11.96;51.87;101384.63;5096341;28;20031;-80
2022/05/02 01:59:55;;;;;;;0.77;0.77;;;;;;;11.86;51.16;101382.25;5110307;28;20077;-80
2022/05/02 02:02:26;;;;;;;1.35;1.15;;;;;;;11.84;51.07;101379.66;5112546;28;20023;-82
2022/05/02 02:07:45;;;;;;;1.58;1.48;;;;;;;11.82;50.91;101384.06;5109963;28;20054;-80
2022/05/02 02:10:16;;;;;;;0.95;0.95;;;;;;;11.77;51.57;101376.28;5109498;28;20039;-80
2022/05/02 02:12:46;;;;;;;0.73;0.73;;;;;;;11.69;51.40;101377.34;5127597;28;20437;-82
2022/05/02 02:15:17;;;;;;;1.63;1.52;;;;;;;11.69;52.27;101374.72;5094792;28;20075;-81
2022/05/02 02:17:47;;;;;;;0.93;0.93;;;;;;;11.69;51.10;101375.59;5111468;28;20036;-80
2022/05/02 02:20:18;;;;;;;1.55;1.45;;;;;;;11.69;51.61;101382.63;5109562;28;20042;-80
2022/05/02 02:22:49;;;;;;;1.83;1.25;;;;;;;11.54;52.90;101386.41;5096946;28;20045;-83
2022/05/02 02:25:19;;;;;;;1.45;1.35;;;;;;;11.64;51.41;101375.69;5117341;28;20149;-83
2022/05/02 02:27:54;;;;;;;1.25;1.25;;;;;;;11.64;51.44;101383.56;5138677;28;20095;-83
2022/05/02 02:30:24;;;;;;;1.60;1.50;;;;;;;11.64;51.34;101383.56;5132881;28;20083;-81
2022/05/02 02:32:56;;;;;;;13.43;1.65;;;;;;;11.61;51.66;101380.13;5138393;28;20276;-80
2022/05/02 02:35:27;;;;;;;2.28;1.83;;;;;;;11.65;51.68;101382.66;5126712;28;20046;-80
2022/05/02 02:38:02;;;;;;;0.60;0.60;;;;;;;11.70;51.58;101379.06;5095579;28;20039;-80
2022/05/02 02:40:33;;;;;;;1.70;0.90;;;;;;;11.69;51.60;101382.63;5095037;28;20046;-80
2022/05/02 02:43:03;;;;;;;0.65;0.65;;;;;;;11.66;51.55;101383.53;5093890;28;20034;-81
2022/05/02 02:45:37;;;;;;;2.35;1.55;;;;;;;11.64;51.46;101372.19;5109179;28;20683;-81
2022/05/02 02:48:08;;;;;;;0.75;0.75;;;;;;;11.63;51.94;101368.69;5093424;28;20034;-83
2022/05/02 02:50:41;;;;;;;7.93;2.22;;;;;;;11.65;51.62;101366.91;5108062;28;20023;-80
2022/05/02 02:53:11;;;;;;;1.40;1.30;;;;;;;11.64;51.72;101365.16;5098189;28;20033;-83
2022/05/02 02:55:42;;;;;;;2.35;2.00;;;;;;;11.67;51.92;101363.38;5134422;28;20050;-83
2022/05/02 02:58:12;;;;;;;0.77;0.77;;;;;;;11.65;51.54;101366.03;5118301;28;20038;-83
2022/05/02 03:00:43;;;;;;;2.55;1.73;;;;;;;11.65;51.67;101364.28;5122278;28;20033;-82
2022/05/02 03:03:14;;;;;;;1.08;0.98;;;;;;;11.59;52.04;101351.28;5109779;28;20023;-84
2022/05/02 03:06:03;;;;;;;1.80;1.70;;;;;;;11.58;51.68;101349.53;5117646;28;20030;-82
2022/05/02 03:08:36;;;;;;;3.38;1.67;;;;;;;11.57;51.84;101353.06;5095305;28;20039;-80
2022/05/02 03:11:07;;;;;;;1.88;1.40;;;;;;;11.53;51.95;101353.16;5109054;28;20026;-82
2022/05/02 03:13:40;;;;;;;1.75;1.55;;;;;;;11.55;51.94;101351.34;5109805;28;20074;-81
2022/05/02 03:16:11;;;;;;;1.00;0.80;;;;;;;11.59;51.76;101356.53;5094644;28;20030;-80
2022/05/02 03:18:43;;;;;;;0.93;0.90;;;;;;;11.59;52.09;101356.53;5107810;28;20363;-82
2022/05/02 03:21:14;;;;;;;1.52;1.35;;;;;;;11.57;52.04;101360.94;5106050;28;20023;-80
2022/05/02 03:23:44;;;;;;;0.90;0.90;;;;;;;11.53;52.44;101351.38;5124586;28;20047;-81
2022/05/02 03:26:15;;;;;;;1.92;1.83;;;;;;;11.53;51.86;101350.53;5108935;28;20513;-80
2022/05/02 03:28:45;;;;;;;4.20;1.90;;;;;;;11.55;52.08;101349.59;5110194;28;20046;-80
2022/05/02 03:31:16;;;;;;;1.52;1.02;;;;;;;11.51;52.44;101347.94;5091080;28;20035;-80
2022/05/02 03:33:46;;;;;;;1.85;1.63;;;;;;;11.43;52.78;101344.59;5115034;28;20070;-81
2022/05/02 03:36:17;;;;;;;1.13;1.02;;;;;;;11.49;53.03;101337.44;5124957;28;20023;-82
2022/05/02 03:38:48;;;;;;;0.65;0.65;;;;;;;11.57;53.45;101332.03;5128666;28;20699;-83
2022/05/02 03:41:18;;;;;;;1.23;1.05;;;;;;;11.46;53.04;101341.88;5118227;28;20031;-81
2022/05/02 03:43:49;;;;;;;1.10;1.00;;;;;;;11.46;52.47;101336.63;5103574;28;20047;-80
2022/05/02 03:46:19;;;;;;;1.20;1.15;;;;;;;11.52;52.54;101340.91;5117643;28;20045;-83
2022/05/02 03:48:50;;;;;;;0.88;0.88;;;;;;;11.53;52.20;101337.38;5098812;28;20046;-82
2022/05/02 03:51:21;;;;;;;1.00;1.00;;;;;;;11.48;52.75;101341.00;5113787;28;20469;-82
2022/05/02 03:53:51;;;;;;;3.33;0.98;;;;;;;11.51;52.81;101337.41;5130844;28;20579;-82
2022/05/02 03:56:25;;;;;;;3.20;1.77;;;;;;;11.48;52.34;101335.72;5115658;28;20121;-81
2022/05/02 03:58:55;;;;;;;0.60;0.60;;;;;;;11.47;52.40;101333.13;5115369;28;20038;-84
2022/05/02 04:01:26;;;;;;;1.05;1.05;;;;;;;11.51;52.90;101332.16;5114068;28;20087;-82
2022/05/02 04:03:56;;;;;;;2.63;1.92;;;;;;;11.45;52.53;101332.28;5129829;28;20041;-84
2022/05/02 04:06:26;;;;;;;1.98;1.27;;;;;;;11.43;53.06;101340.19;5131707;28;20022;-82
2022/05/02 04:08:57;;;;;;;1.75;1.30;;;;;;;11.47;52.89;101339.25;5150917;28;20046;-84
2022/05/02 04:11:27;;;;;;;1.17;0.93;;;;;;;11.47;52.81;101341.00;5136409;28;20019;-84
2022/05/02 04:13:58;;;;;;;4.20;2.17;;;;;;;11.49;52.78;101340.06;5125121;28;20114;-82
2022/05/02 04:16:29;;;;;;;7.35;1.40;;;;;;;11.39;53.28;101343.81;5101001;28;20035;-84
2022/05/02 04:18:59;;;;;;;2.72;1.63;;;;;;;11.39;52.80;101348.16;5115561;28;20030;-83
2022/05/02 04:21:30;;;;;;;1.17;1.17;;;;;;;11.42;53.09;101346.34;5101196;28;20058;-83
2022/05/02 04:24:00;;;;;;;0.45;0.45;;;;;;;11.32;54.22;101347.44;5131105;28;20043;-83
2022/05/02 04:26:31;;;;;;;1.55;1.35;;;;;;;11.34;53.90;101346.53;5108324;28;20037;-82
2022/05/02 04:29:05;;;;;;;1.45;1.35;;;;;;;11.33;54.66;101352.66;5131702;28;20095;-84
2022/05/02 04:31:36;;;;;;;1.10;1.00;;;;;;;11.38;53.90;101347.31;5099004;28;20106;-83
2022/05/02 04:34:07;;;;;;;1.35;1.27;;;;;;;11.39;53.12;101348.16;5116192;28;20081;-83
2022/05/02 04:36:40;;;;;;;0.80;0.80;;;;;;;11.43;53.49;101357.75;5105913;28;20034;-82
2022/05/02 04:39:14;;;;;;;2.78;2.58;;;;;;;11.38;53.07;101360.47;5115756;28;20571;-81
2022/05/02 04:41:44;;;;;;;1.90;1.80;;;;;;;11.33;53.61;101360.53;5099246;28;20026;-83
2022/05/02 04:44:15;;;;;;;2.38;2.22;;;;;;;11.30;53.95;101350.09;5114870;28;20241;-83
2022/05/02 04:46:45;;;;;;;1.65;1.33;;;;;;;11.28;53.93;101357.13;5126671;28;20034;-81
2022/05/02 04:49:18;;;;;;;1.52;1.42;;;;;;;11.26;54.52;101356.31;5109411;28;20528;-80
2022/05/02 04:51:49;;;;;;;;;;;;;;;11.20;55.09;101359.03;5126486;28;20034;-81
2022/05/02 04:54:19;;;;;;;0.98;0.98;;;;;;;11.25;55.03;101349.31;5094790;28;19926;-83
2022/05/02 04:56:50;;;;;;;2.53;2.28;;;;;;;11.28;54.21;101351.88;5110603;28;20023;-82
2022/05/02 04:59:20;;;;;;;1.35;1.35;;;;;;;11.22;54.65;101349.38;5091103;28;20085;-81
2022/05/02 05:01:51;;;;;;;1.73;1.15;;;;;;;11.24;54.52;101349.38;5094220;28;20045;-81
2022/05/02 05:04:24;;;;;;;2.35;2.15;;;;;;;11.28;54.03;101357.13;5110174;28;20686;-80
2022/05/02 05:06:54;;;;;;;1.27;1.17;;;;;;;11.29;54.27;101360.63;5096315;28;20724;-81
2022/05/02 05:09:25;;;;;;;1.92;1.70;;;;;;;11.38;54.08;101362.19;5096963;28;20062;-83
2022/05/02 05:12:15;;;;;;;1.60;1.50;;;;;;;11.32;53.82;101352.72;5125155;28;20090;-82
2022/05/02 05:18:08;;;;;;;1.35;1.30;;;;;;;11.35;54.23;101352.63;5131842;28;20023;-82
2022/05/02 05:20:53;;;;;;;2.10;1.70;;;;;;;11.36;55.53;101353.50;5129355;28;20073;-80
2022/05/02 05:23:59;;;;;;;1.17;1.08;;;;;;;11.36;55.95;101353.50;5117214;28;20043;-80
2022/05/02 05:27:02;;;;;;;1.98;1.77;;;;;;;11.41;54.40;101355.13;5098620;28;20050;-82
2022/05/02 05:30:07;;;;;;;1.75;1.65;;;;;;;11.43;54.59;101355.13;5115473;28;20050;-81
2022/05/02 05:32:41;;;;;;;1.35;1.33;;;;;;;11.42;55.80;101348.13;5072591;28;20130;-80
2022/05/02 05:35:14;;;;;;;;;;;;;;;11.35;56.37;101347.38;5120953;28;20047;-81
2022/05/02 05:38:11;;;;;;;1.83;1.73;;;;;;;11.42;55.88;101338.47;5098923;28;19921;-80
2022/05/02 05:40:48;;;;;;;0.60;0.60;;;;;;;11.43;55.06;101345.44;5115189;28;20114;-83
2022/05/02 05:43:39;;;;;;;1.10;1.02;;;;;;;11.46;55.16;101352.41;5114483;28;20039;-81
2022/05/02 05:46:34;;;;;;;1.40;1.30;;;;;;;11.48;54.80;101351.50;5122724;28;20018;-81
2022/05/02 05:49:14;;;;;;;1.98;1.88;;;;;;;11.50;54.27;101351.47;5123371;28;20027;-85
2022/05/02 05:51:51;;;;;;;0.65;0.65;;;;;;;11.50;55.14;101356.72;5117628;28;20093;-79
2022/05/02 05:54:31;;;;;;;0.88;0.88;;;;;;;11.43;55.19;101357.75;5097501;28;20043;-81
2022/05/02 05:57:13;;;;;;;0.90;0.90;;;;;;;11.51;55.14;101353.19;5091921;28;20034;-79
2022/05/02 06:00:13;;;;;;;0.88;0.88;;;;;;;11.54;55.64;101354.88;5106973;28;20038;-79
2022/05/02 06:02:49;;;;;;;1.08;1.00;;;;;;;11.57;54.97;101353.06;5105514;28;20043;-80
2022/05/02 06:05:20;;;;;;;0.65;0.65;;;;;;;11.43;56.45;101353.34;5091707;28;20042;-81
2022/05/02 06:07:52;;;;;;;2.13;2.03;;;;;;;11.66;55.58;101357.22;5113376;28;20097;-84
2022/05/02 06:10:28;;;;;;;1.20;1.10;;;;;;;11.45;56.98;101353.28;5098832;28;20782;-81
2022/05/02 06:13:01;;;;;;;0.50;0.50;;;;;;;11.49;56.63;101352.34;5125505;28;20021;-81
2022/05/02 06:18:38;;;;;;;4.13;1.95;;;;;;;11.81;55.38;101359.56;5123411;28;20074;-81
2022/05/02 06:21:09;;;;;;;1.33;1.25;;;;;;;11.74;55.23;101359.72;5095473;28;20561;-82
2022/05/02 06:23:47;;;;;;;1.15;1.05;;;;;;;11.64;57.38;101359.06;5097091;28;20130;-84
2022/05/02 06:26:22;;;;;;;0.82;0.82;;;;;;;11.51;57.83;101358.44;5117548;28;20288;-85
2022/05/02 06:28:53;;;;;;;0.40;0.40;;;;;;;11.59;57.46;101361.78;5106205;28;20632;-86
2022/05/02 06:31:30;;;;;;;1.73;1.40;;;;;;;11.57;57.90;101360.09;5102553;28;20019;-86
2022/05/02 06:34:02;;;;;;;4.38;2.05;;;;;;;11.66;57.36;101365.13;5118544;28;20038;-82
2022/05/02 06:37:14;;;;;;;2.45;2.25;;;;;;;11.54;58.40;101368.88;5129310;28;20026;-84
2022/05/02 06:40:21;;;;;;;2.03;1.77;;;;;;;11.62;56.37;101366.94;5097397;29;20047;-85
2022/05/02 06:43:14;;;;;;;1.13;1.02;;;;;;;11.90;56.35;101365.50;5119530;28;20165;-84
2022/05/02 06:46:01;;;;;;;1.58;1.48;;;;;;;11.82;57.32;101368.28;5118844;28;20043;-85
2022/05/02 06:48:43;;;;;;;1.38;1.27;;;;;;;11.86;56.47;101363.84;5102517;28;20151;-84
2022/05/02 06:51:27;;;;;;;2.35;1.80;;;;;;;11.79;57.70;101365.72;5122863;28;20098;-85
2022/05/02 06:54:16;;;;;;;1.45;1.35;;;;;;;11.80;57.57;101368.34;5112434;28;20100;-84
2022/05/02 06:57:08;;;;;;;;;;;;;;;;;;;;;
2022/05/02 06:59:43;;;;;;;0.93;0.93;;;;;;;12.10;56.68;101370.34;5126052;28;20099;-86
2022/05/02 07:02:42;;;;;;;;;;;;;;;11.96;58.17;101368.00;5128281;28;20197;-85
2022/05/02 07:05:32;;;;;;;0.90;0.80;;;;;;;12.12;56.99;101360.63;5118396;28;19918;-84
2022/05/02 07:08:05;;;;;;;1.13;1.13;;;;;;;12.21;56.60;101360.41;5095341;28;20043;-83
2022/05/02 07:10:42;;;;;;;1.00;1.00;;;;;;;12.07;57.27;101371.25;5105842;28;20057;-83
2022/05/02 07:13:21;;;;;;;0.93;0.93;;;;;;;12.10;56.50;101372.97;5120216;28;20038;-85
2022/05/02 07:16:19;;;;;;;4.43;2.33;;;;;;;12.16;57.24;101367.56;5124711;28;20046;-86
2022/05/02 07:19:15;;;;;;;1.67;1.58;;;;;;;12.23;57.35;101369.16;5105132;28;20045;-84
2022/05/02 07:22:03;;;;;;;0.88;0.88;;;;;;;12.31;57.50;101365.47;5123446;28;20011;-85
2022/05/02 07:25:11;;;;;;;1.38;1.27;;;;;;;12.37;56.97;101367.94;5111827;28;20151;-85
2022/05/02 07:28:02;;;;;;;1.65;1.55;;;;;;;12.23;58.72;101358.63;5032537;29;20088;-81
2022/05/02 07:30:34;;;;;;;1.58;1.48;;;;;;;12.34;57.15;101358.38;5130916;28;20050;-85
2022/05/02 07:33:10;;;;;;;2.15;1.60;;;;;;;12.55;56.44;101364.88;5103445;28;20241;-82
2022/05/02 07:35:45;;;;;;;1.25;1.20;;;;;;;12.57;57.24;101368.34;5100212;28;20046;-80
2022/05/02 07:38:22;;;;;;;1.38;1.30;;;;;;;12.42;57.91;101360.81;5110446;28;20030;-84
2022/05/02 07:43:48;;;;;;;1.70;1.55;;;;;;;12.49;58.16;101365.03;5126063;28;20090;-85
2022/05/02 07:46:30;;;;;;;0.68;0.68;;;;;;;12.63;57.77;101367.31;5108365;28;20034;-85
2022/05/02 07:49:05;;;;;;;1.65;1.55;;;;;;;12.64;57.06;101368.16;5119981;28;20047;-83
2022/05/02 07:51:47;;;;;;;1.63;1.53;;;;;;;12.76;56.50;101367.88;5103887;28;20113;-83
2022/05/02 07:54:25;;;;;;;1.63;1.52;;;;;;;12.80;56.46;101369.50;5115361;28;20035;-85
2022/05/02 07:57:03;;;;;;;1.58;1.25;;;;;;;12.75;56.62;101361.72;5104292;28;20065;-82
2022/05/02 07:59:44;;;;;;;3.05;2.85;;;;;;;12.76;57.16;101362.59;5118124;28;20037;-82
2022/05/02 08:02:16;;;;;;;1.73;1.58;;;;;;;12.78;57.22;101366.03;5095739;28;20514;-83
2022/05/02 08:04:47;;;;;;;1.15;1.13;;;;;;;12.81;56.67;101357.22;5100948;28;20087;-82
2022/05/02 08:07:33;;;;;;;0.63;0.63;;;;;;;12.83;56.60;101365.91;5100353;28;20127;-84
2022/05/02 08:10:30;;;;;;;1.02;1.02;;;;;;;12.90;55.80;101364.84;5098147;28;20043;-82
2022/05/02 08:13:13;;;;;;;0.63;0.63;;;;;;;12.85;56.52;101357.06;5102488;28;20030;-85
2022/05/02 08:16:05;;;;;;;0.88;0.88;;;;;;;12.96;55.89;101355.94;5117712;28;20262;-83
2022/05/02 08:19:23;;;;;;;2.83;1.38;;;;;;;13.09;55.18;101359.09;5106529;28;20042;-82
2022/05/02 08:28:16;;;;;;;0.80;0.80;;;;;;;13.01;55.74;101356.69;5120754;28;20026;-84
2022/05/02 08:31:29;;;;;;;1.23;1.15;;;;;;;12.97;55.56;101355.03;5104057;28;20014;-83
2022/05/02 08:34:32;;;;;;;3.40;1.73;;;;;;;13.05;56.62;101355.69;5097892;28;20045;-85
2022/05/02 08:37:43;;;;;;;2.47;1.45;;;;;;;13.16;55.68;101353.63;5104094;28;20027;-85
2022/05/02 08:40:37;;;;;;;6.30;2.75;;;;;;;13.12;55.82;101354.59;5092677;28;20576;-82
2022/05/02 08:43:35;;;;;;;1.38;1.20;;;;;;;13.17;55.56;101355.38;5121027;28;20054;-84
2022/05/02 08:46:23;;;;;;;1.42;1.33;;;;;;;13.27;55.73;101355.97;5123097;28;20038;-83
2022/05/02 08:52:12;;;;;;;0.88;0.88;;;;;;;13.28;55.42;101347.16;5126090;28;20038;-84
2022/05/02 08:55:01;;;;;;;1.85;1.75;;;;;;;13.39;54.78;101354.78;5104450;28;20307;-82
2022/05/02 08:57:56;;;;;;;1.35;1.30;;;;;;;13.43;54.72;101342.38;5126024;28;20035;-85
2022/05/02 09:01:04;;;;;;;1.10;0.95;;;;;;;13.47;54.54;101344.88;5118055;28;20034;-84
2022/05/02 09:04:01;;;;;;;1.10;1.02;;;;;;;13.47;54.79;101339.59;5110236;28;20027;-83
2022/05/02 09:06:48;;;;;;;1.27;1.27;;;;;;;13.49;55.09;101335.16;5121642;28;20039;-86
2022/05/02 09:09:51;;;;;;;1.40;1.30;;;;;;;13.60;54.88;101331.31;5108080;28;20035;-86
2022/05/02 09:12:53;;;;;;;1.20;1.20;;;;;;;13.52;54.70;101337.69;5120782;28;20050;-86
2022/05/02 09:15:46;;;;;;;0.98;0.98;;;;;;;13.63;54.71;101340.03;5117044;28;20070;-86
2022/05/02 09:19:03;;;;;;;3.28;0.93;;;;;;;13.66;53.81;101336.44;5118314;28;20721;-85
2022/05/02 09:21:40;;;;;;;0.60;0.60;;;;;;;13.87;54.21;101341.94;5119954;28;20083;-83
2022/05/02 09:24:32;;;;;;;0.93;0.93;;;;;;;13.82;54.30;101339.44;5103132;28;20050;-84
2022/05/02 09:27:33;;;;;;;2.88;1.48;;;;;;;13.85;54.34;101337.56;5120927;28;20115;-83
2022/05/02 09:30:28;;;;;;;2.60;1.38;;;;;;;13.92;54.29;101332.13;5099211;28;20117;-81
2022/05/02 09:33:23;;;;;;;1.52;1.42;;;;;;;13.98;53.09;101329.28;5096850;28;20090;-80
2022/05/02 09:36:01;;;;;;;1.45;1.35;;;;;;;14.07;54.21;101331.63;5067417;29;20055;-84
2022/05/02 09:39:01;;;;;;;1.35;1.25;;;;;;;14.16;52.78;101333.97;5109515;28;20049;-81
2022/05/02 09:41:41;;;;;;;0.50;0.50;;;;;;;14.15;53.18;101332.25;5117484;28;20045;-83
2022/05/02 09:51:14;;;;;;;0.55;0.55;;;;;;;14.46;52.97;101323.31;5106113;28;20137;-81
2022/05/02 09:54:12;;;;;;;1.85;1.40;;;;;;;14.44;52.26;101321.66;5103972;28;20411;-85
2022/05/02 09:56:46;;;;;;;0.80;0.80;;;;;;;14.46;52.13;101314.53;5118388;28;20062;-83
2022/05/02 09:59:28;;;;;;;0.30;0.30;;;;;;;14.52;52.33;101308.16;5099637;28;20047;-84
2022/05/02 10:02:15;;;;;;;0.60;0.60;;;;;;;14.52;52.31;101302.88;5114842;28;20045;-85
2022/05/02 10:04:52;;;;;;;0.28;0.28;;;;;;;14.60;52.15;101298.19;5123734;28;20466;-83
2022/05/02 10:07:24;;;;;;;0.85;0.85;;;;;;;14.76;51.06;101302.06;5103523;28;20508;-82
2022/05/02 10:10:03;;;;;;;0.50;0.50;;;;;;;14.71;50.80;101303.16;5122940;28;20058;-82
2022/05/02 10:12:48;;;;;;;0.82;0.82;;;;;;;14.78;51.29;101302.88;5100542;28;20058;-86
2022/05/02 10:15:19;;;;;;;0.65;0.65;;;;;;;14.89;51.72;101296.34;5133447;28;20115;-82
2022/05/02 10:17:59;;;;;;;1.90;0.82;;;;;;;15.00;51.41;101299.44;5116706;28;20498;-84
2022/05/02 10:20:45;;;;;;;2.05;1.35;;;;;;;14.99;51.33;101292.47;5092233;28;20070;-85
2022/05/02 10:23:28;;;;;;;0.90;0.70;;;;;;;15.17;50.55;101295.31;5100531;28;20446;-84
2022/05/02 10:26:24;;;;;;;1.17;1.13;;;;;;;15.13;50.89;101288.44;5102206;28;20255;-85
2022/05/02 10:29:16;;;;;;;2.60;2.40;;;;;;;15.20;50.22;101284.66;5101165;28;20509;-81
2022/05/02 10:31:59;;;;;;;2.20;1.13;;;;;;;15.33;50.16;101279.75;5100959;28;20023;-83
2022/05/02 10:34:36;;;;;;;2.28;1.85;;;;;;;15.38;49.89;101291.00;5103298;28;20046;-82
2022/05/02 10:37:15;;;;;;;0.65;0.65;;;;;;;15.47;49.97;101292.47;5124133;28;20129;-85
2022/05/02 10:39:47;;;;;;;0.95;0.95;;;;;;;15.50;49.54;101284.38;5112863;28;20043;-84
2022/05/02 10:42:19;;;;;;;0.60;0.60;;;;;;;15.57;48.95;101285.91;5113639;28;20023;-84
2022/05/02 10:45:32;;;;;;;1.02;1.00;;;;;;;15.69;48.73;101285.41;5143694;28;20279;-82
2022/05/02 10:48:18;;;;;;;0.68;0.60;;;;;;;15.72;49.06;101277.34;5079348;28;20583;-81
2022/05/02 10:51:08;;;;;;;0.60;0.60;;;;;;;15.70;49.47;101281.00;5102173;28;20026;-81
2022/05/02 10:54:11;;;;;;;1.02;0.93;;;;;;;15.77;48.48;101287.75;5120317;28;20054;-81
2022/05/02 10:56:53;;;;;;;1.23;0.88;;;;;;;15.76;49.09;101282.50;5117925;28;20022;-86
2022/05/02 10:59:37;;;;;;;1.15;1.05;;;;;;;15.85;47.48;101276.88;5083490;28;20148;-82
2022/05/02 11:02:37;;;;;;;1.30;1.23;;;;;;;15.99;48.87;101278.97;5100026;28;20039;-82
2022/05/02 11:05:15;;;;;;;1.60;1.20;;;;;;;16.02;47.43;101278.88;5111704;28;20054;-83
2022/05/02 11:08:17;;;;;;;2.50;1.75;;;;;;;16.00;47.85;101270.97;5114541;28;20027;-83
2022/05/02 11:11:03;;;;;;;1.33;1.23;;;;;;;16.12;48.17;101269.59;5090937;28;20035;-80
2022/05/02 11:14:12;;;;;;;3.13;1.23;;;;;;;16.17;46.36;101259.69;5093384;28;20043;-82
2022/05/02 11:17:13;;;;;;;0.68;0.68;;;;;;;16.34;45.72;101263.41;5114221;28;20038;-82
2022/05/02 11:23:28;;;;;;;1.08;1.05;;;;;;;16.44;46.49;101250.63;5099472;28;20042;-81
2022/05/02 11:26:13;;;;;;;1.65;1.25;;;;;;;16.48;46.91;101245.13;5111838;28;20390;-83
2022/05/02 11:28:54;;;;;;;1.05;1.00;;;;;;;16.63;45.66;101238.31;5125196;28;20074;-83
2022/05/02 11:31:40;;;;;;;1.23;1.13;;;;;;;16.81;45.99;101235.78;5112001;28;20109;-83
2022/05/02 11:34:30;;;;;;;14.10;2.10;;;;;;;16.83;44.92;101249.78;5111252;28;20405;-84
2022/05/02 11:37:01;;;;;;;1.40;1.30;;;;;;;16.88;45.87;101242.50;5085609;28;20039;-83
2022/05/02 11:39:40;;;;;;;0.95;0.95;;;;;;;17.11;43.20;101230.00;5133825;28;20042;-83
2022/05/02 11:42:18;;;;;;;1.20;1.10;;;;;;;17.06;44.76;101239.97;5113320;28;20069;-83
2022/05/02 11:45:18;;;;;;;1.30;1.20;;;;;;;17.12;45.08;101232.59;5110472;28;20514;-82
2022/05/02 11:47:57;;;;;;;0.90;0.90;;;;;;;17.17;44.51;101231.53;5108928;28;20019;-81
2022/05/02 11:50:36;;;;;;;1.02;1.02;;;;;;;17.25;43.15;101239.97;5116760;28;20054;-80
2022/05/02 11:53:09;;;;;;;0.80;0.80;;;;;;;17.35;41.78;101229.78;5089960;28;20218;-84
2022/05/02 11:55:45;;;;;;;0.88;0.88;;;;;;;17.38;41.47;101238.47;5119345;28;20023;-81
2022/05/02 11:58:25;;;;;;;1.40;1.38;;;;;;;17.42;42.41;101237.41;5092071;28;20090;-84
2022/05/02 12:01:04;;;;;;;2.30;1.25;;;;;;;17.41;41.95;101232.13;5126058;28;20031;-84
2022/05/02 12:03:43;;;;;;;1.67;1.58;;;;;;;17.64;42.24;101235.50;5086269;29;20495;-83
2022/05/02 12:06:23;;;;;;;1.50;1.40;;;;;;;17.55;43.12;101221.75;5121181;28;20046;-84
2022/05/02 12:08:54;;;;;;;1.05;1.02;;;;;;;17.60;42.66;101232.13;5105918;28;20047;-84
2022/05/02 12:11:25;;;;;;;0.77;0.70;;;;;;;17.75;42.39;101226.06;5119050;28;20038;-85
2022/05/02 12:13:59;;;;;;;2.38;1.60;;;;;;;17.87;42.99;101227.25;5097076;28;20035;-87
2022/05/02 12:16:33;;;;;;;2.97;1.85;;;;;;;18.05;41.91;101224.66;5124063;28;20027;-85
2022/05/02 12:19:33;;;;;;;1.55;1.23;;;;;;;18.08;42.58;101225.34;5126257;28;20539;-85
2022/05/02 12:22:13;;;;;;;1.48;1.38;;;;;;;18.20;43.36;101220.34;5110075;29;20442;-83
2022/05/02 12:24:45;;;;;;;1.45;0.90;;;;;;;18.43;43.32;101220.97;5099813;28;20059;-83
2022/05/02 12:27:21;;;;;;;1.33;1.03;;;;;;;18.42;42.36;101224.56;5113031;28;20019;-82
2022/05/02 12:29:57;;;;;;;0.88;0.77;;;;;;;18.39;42.13;101221.13;5085627;28;20043;-85
2022/05/02 12:32:33;;;;;;;0.68;0.57;;;;;;;18.36;41.76;101221.28;5122101;28;20034;-85
2022/05/02 12:35:11;;;;;;;1.23;1.13;;;;;;;18.36;42.02;101212.44;5096886;28;20111;-83
2022/05/02 12:37:46;;;;;;;0.93;0.80;;;;;;;18.37;40.87;101206.22;5100378;28;20041;-84
2022/05/02 12:40:23;;;;;;;2.47;1.20;;;;;;;18.33;41.93;101204.63;5097014;28;20039;-88
2022/05/02 12:43:11;;;;;;;1.73;0.88;;;;;;;18.47;41.83;101203.91;5132223;28;20050;-87
2022/05/02 12:45:57;;;;;;;1.35;1.25;;;;;;;18.71;41.38;101202.59;5114242;28;20055;-87
2022/05/02 12:48:38;;;;;;;3.22;1.38;;;;;;;18.73;40.28;101205.19;5132660;28;20063;-86
2022/05/02 12:51:18;;;;;;;2.15;1.35;;;;;;;18.82;40.16;101196.69;5105700;28;20031;-84
2022/05/02 13:02:52;;;;;;;1.45;1.35;;;;;;;19.08;39.04;101196.28;5130624;28;20050;-85
2022/05/02 13:05:24;;;;;;;1.92;1.80;;;;;;;19.28;38.69;101189.84;5126647;28;20569;-83